createdAt,value
2022-08-03T00:00:20.158Z,79.71
2022-08-03T00:02:46.625Z,79.66
2022-08-03T00:05:13.056Z,77.98
2022-08-03T00:07:41.025Z,75.80
2022-08-03T00:10:07.886Z,76.19
2022-08-03T00:12:36.266Z,76.66
2022-08-03T00:15:03.273Z,77.36
2022-08-03T00:17:52.676Z,77.25
2022-08-03T00:20:24.183Z,77.30
2022-08-03T00:22:50.677Z,77.57
2022-08-03T00:25:18.095Z,77.82
2022-08-03T00:27:44.783Z,78.04
2022-08-03T00:30:11.671Z,78.30
2022-08-03T00:32:44.223Z,78.48
2022-08-03T00:35:18.053Z,78.52
2022-08-03T00:37:59.044Z,78.97
2022-08-03T00:40:26.321Z,79.25
2022-08-03T00:42:55.028Z,79.45
2022-08-03T00:45:27.694Z,79.55
2022-08-03T00:47:54.703Z,79.50
2022-08-03T00:50:23.088Z,79.86
2022-08-03T00:52:51.597Z,79.94
2022-08-03T00:55:18.286Z,80.14
2022-08-03T00:57:46.174Z,80.67
2022-08-03T01:00:15.823Z,81.06
2022-08-03T01:02:42.440Z,81.18
2022-08-03T01:05:10.616Z,81.30
2022-08-03T01:08:05.747Z,81.40
2022-08-03T01:10:48.407Z,81.65
2022-08-03T01:14:03.667Z,81.89
2022-08-03T01:16:37.048Z,82.41
2022-08-03T01:19:41.337Z,82.52
2022-08-03T01:22:26.645Z,82.65
2022-08-03T01:25:05.262Z,82.43
2022-08-03T01:28:01.759Z,82.52
2022-08-03T01:30:31.810Z,82.48
2022-08-03T01:33:12.309Z,82.66
2022-08-03T01:35:43.552Z,82.62
2022-08-03T01:38:32.139Z,82.83
2022-08-03T01:41:05.676Z,83.03
2022-08-03T01:44:26.515Z,83.56
2022-08-03T01:46:20.613Z,83.54
2022-08-03T01:48:49.072Z,83.74
2022-08-03T01:51:18.306Z,83.96
2022-08-03T01:53:45.433Z,84.26
2022-08-03T01:56:13.887Z,84.23
2022-08-03T01:58:42.090Z,84.43
2022-08-03T02:01:10.152Z,84.58
2022-08-03T02:03:59.478Z,84.93
2022-08-03T02:06:59.627Z,85.43
2022-08-03T02:09:15.300Z,85.80
2022-08-03T02:11:43.785Z,85.93
2022-08-03T02:14:11.156Z,86.04
2022-08-03T02:16:37.603Z,86.22
2022-08-03T02:19:06.473Z,86.25
2022-08-03T02:21:55.924Z,86.28
2022-08-03T02:24:23.801Z,86.31
2022-08-03T02:26:53.133Z,86.41
2022-08-03T02:29:39.964Z,86.49
2022-08-03T02:32:13.226Z,86.55
2022-08-03T02:34:42.104Z,86.71
2022-08-03T02:37:10.768Z,86.82
2022-08-03T02:39:39.713Z,87.05
2022-08-03T02:42:10.474Z,87.16
2022-08-03T02:44:41.492Z,87.21
2022-08-03T02:47:10.805Z,87.41
2022-08-03T02:49:50.114Z,87.49
2022-08-03T02:52:21.359Z,87.76
2022-08-03T02:54:51.065Z,87.95
2022-08-03T02:57:19.922Z,88.05
2022-08-03T02:59:47.620Z,88.05
2022-08-03T03:02:16.706Z,88.22
2022-08-03T03:04:58.094Z,88.30
2022-08-03T03:07:35.325Z,88.67
2022-08-03T03:10:21.848Z,88.79
2022-08-03T03:12:51.317Z,88.75
2022-08-03T03:15:18.827Z,88.90
2022-08-03T03:17:46.420Z,89.08
2022-08-03T03:20:15.090Z,89.31
2022-08-03T03:22:56.409Z,89.40
2022-08-03T03:25:24.263Z,89.48
2022-08-03T03:27:51.178Z,89.45
2022-08-03T03:30:17.684Z,89.63
2022-08-03T03:32:44.270Z,89.87
2022-08-03T03:35:11.640Z,90.01
2022-08-03T03:37:38.366Z,90.15
2022-08-03T03:40:05.446Z,90.33
2022-08-03T03:42:32.049Z,90.40
2022-08-03T03:44:59.472Z,90.50
2022-08-03T03:47:32.411Z,90.62
2022-08-03T03:49:59.972Z,90.83
2022-08-03T03:52:26.437Z,90.99
2022-08-03T03:54:56.348Z,90.89
2022-08-03T03:57:26.048Z,90.82
2022-08-03T03:59:53.038Z,90.93
2022-08-03T04:02:19.498Z,90.93
2022-08-03T04:05:04.383Z,91.13
2022-08-03T04:08:04.772Z,91.21
2022-08-03T04:10:53.488Z,91.19
2022-08-03T04:13:21.888Z,91.25
2022-08-03T04:15:50.409Z,91.05
2022-08-03T04:18:19.025Z,91.05
2022-08-03T04:20:48.705Z,91.21
2022-08-03T04:23:16.844Z,91.43
2022-08-03T04:25:44.308Z,91.48
2022-08-03T04:28:30.945Z,91.82
2022-08-03T04:31:01.027Z,91.83
2022-08-03T04:33:29.669Z,91.78
2022-08-03T04:36:01.957Z,91.73
2022-08-03T04:38:36.655Z,91.87
2022-08-03T04:41:03.646Z,91.89
2022-08-03T04:43:33.563Z,91.75
2022-08-03T04:46:01.574Z,91.40
2022-08-03T04:48:28.500Z,91.16
2022-08-03T04:50:55.058Z,90.86
2022-08-03T04:53:21.743Z,90.89
2022-08-03T04:55:48.156Z,90.66
2022-08-03T04:58:14.625Z,90.69
2022-08-03T05:00:41.068Z,90.14
2022-08-03T05:03:20.274Z,89.45
2022-08-03T05:05:52.448Z,89.16
2022-08-03T05:08:20.649Z,88.91
2022-08-03T05:10:54.526Z,89.23
2022-08-03T05:13:21.117Z,88.60
2022-08-03T05:15:47.559Z,88.10
2022-08-03T05:18:14.522Z,87.40
2022-08-03T05:20:41.528Z,86.92
2022-08-03T05:23:08.007Z,86.39
2022-08-03T05:25:34.457Z,85.98
2022-08-03T05:28:01.271Z,85.81
2022-08-03T05:30:33.331Z,85.53
2022-08-03T05:33:02.455Z,85.10
2022-08-03T05:36:01.981Z,84.71
2022-08-03T05:38:24.040Z,84.69
2022-08-03T05:41:20.392Z,84.73
2022-08-03T05:43:46.055Z,84.20
2022-08-03T05:46:12.936Z,84.10
2022-08-03T05:48:40.137Z,83.20
2022-08-03T05:51:07.726Z,82.19
2022-08-03T05:53:34.498Z,81.88
2022-08-03T05:56:02.733Z,80.89
2022-08-03T05:58:39.935Z,80.17
2022-08-03T06:01:06.403Z,79.71
2022-08-03T06:03:32.843Z,79.31
2022-08-03T06:06:00.331Z,79.17
2022-08-03T06:08:27.092Z,78.96
2022-08-03T06:10:53.513Z,78.47
2022-08-03T06:13:19.964Z,77.86
2022-08-03T06:15:46.463Z,77.24
2022-08-03T06:18:12.923Z,76.94
2022-08-03T06:20:39.370Z,76.04
2022-08-03T06:23:06.403Z,75.11
2022-08-03T06:25:34.073Z,74.31
2022-08-03T06:28:00.598Z,73.63
2022-08-03T06:30:27.262Z,72.52
2022-08-03T06:32:53.715Z,72.37
2022-08-03T06:35:20.389Z,72.11
2022-08-03T06:37:49.582Z,71.75
2022-08-03T06:40:21.826Z,71.18
2022-08-03T06:42:50.937Z,71.52
2022-08-03T06:45:18.009Z,71.30
2022-08-03T06:47:44.500Z,71.29
2022-08-03T06:50:16.399Z,71.01
2022-08-03T06:52:43.852Z,71.00
2022-08-03T06:55:10.272Z,70.52
2022-08-03T06:57:36.763Z,70.86
2022-08-03T07:00:08.706Z,70.59
2022-08-03T07:02:39.767Z,70.45
2022-08-03T07:05:07.646Z,70.19
2022-08-03T07:07:34.310Z,70.30
2022-08-03T07:10:02.155Z,70.02
2022-08-03T07:12:30.439Z,69.90
2022-08-03T07:15:01.275Z,69.82
2022-08-03T07:17:34.483Z,69.03
2022-08-03T07:20:03.923Z,68.67
2022-08-03T07:22:30.365Z,68.86
2022-08-03T07:24:56.786Z,68.84
2022-08-03T07:27:23.272Z,68.35
2022-08-03T07:29:49.755Z,68.37
2022-08-03T07:32:16.398Z,68.01
2022-08-03T07:34:42.976Z,68.27
2022-08-03T07:37:09.410Z,67.88
2022-08-03T07:39:35.854Z,68.40
2022-08-03T07:42:02.492Z,67.92
2022-08-03T07:44:28.961Z,68.39
2022-08-03T07:46:55.405Z,66.89
2022-08-03T07:49:23.301Z,66.41
2022-08-03T07:52:09.750Z,66.12
2022-08-03T07:54:36.310Z,66.53
2022-08-03T07:57:02.836Z,66.50
2022-08-03T07:59:29.249Z,66.07
2022-08-03T08:02:15.856Z,65.44
2022-08-03T08:04:42.436Z,65.40
2022-08-03T08:07:09.263Z,64.83
2022-08-03T08:09:35.962Z,64.95
2022-08-03T08:12:02.456Z,63.89
2022-08-03T08:14:29.600Z,62.81
2022-08-03T08:16:56.125Z,62.82
2022-08-03T08:19:22.532Z,62.78
2022-08-03T08:21:53.181Z,62.61
2022-08-03T08:24:30.320Z,62.82
2022-08-03T08:26:57.759Z,62.40
2022-08-03T08:29:24.250Z,61.99
2022-08-03T08:31:50.700Z,61.52
2022-08-03T08:34:17.209Z,61.11
2022-08-03T08:36:43.844Z,61.10
2022-08-03T08:39:10.356Z,60.97
2022-08-03T08:41:36.805Z,60.91
2022-08-03T08:44:03.725Z,60.22
2022-08-03T08:46:34.050Z,60.50
2022-08-03T08:49:04.723Z,60.61
2022-08-03T08:51:54.685Z,60.59
2022-08-03T08:54:25.462Z,60.09
2022-08-03T08:56:53.406Z,59.51
2022-08-03T08:59:20.686Z,59.34
2022-08-03T09:01:47.184Z,59.22
2022-08-03T09:04:13.750Z,58.83
2022-08-03T09:06:40.162Z,58.68
2022-08-03T09:09:07.152Z,57.34
2022-08-03T09:11:52.364Z,56.26
2022-08-03T09:14:34.382Z,56.56
2022-08-03T09:17:04.421Z,56.39
2022-08-03T09:19:33.301Z,56.19
2022-08-03T09:22:14.149Z,55.58
2022-08-03T09:25:21.607Z,55.32
2022-08-03T09:27:45.943Z,55.20
2022-08-03T09:30:33.837Z,54.79
2022-08-03T09:33:09.689Z,54.31
2022-08-03T09:35:53.666Z,53.69
2022-08-03T09:38:27.225Z,53.96
2022-08-03T09:40:59.482Z,53.48
2022-08-03T09:43:27.797Z,52.83
2022-08-03T09:46:07.202Z,53.94
2022-08-03T09:48:35.406Z,52.61
2022-08-03T09:51:14.425Z,51.53
2022-08-03T09:53:59.772Z,50.22
2022-08-03T09:56:39.674Z,50.56
2022-08-03T09:59:06.231Z,49.94
2022-08-03T10:01:34.804Z,50.49
2022-08-03T10:04:03.803Z,50.82
2022-08-03T10:06:31.449Z,51.05
2022-08-03T10:09:08.550Z,51.31
2022-08-03T10:11:40.745Z,50.25
2022-08-03T10:14:09.323Z,50.24
2022-08-03T10:16:39.766Z,50.67
2022-08-03T10:19:09.118Z,50.82
2022-08-03T10:21:38.257Z,50.35
2022-08-03T10:24:10.564Z,50.72
2022-08-03T10:26:39.967Z,50.68
2022-08-03T10:29:24.323Z,49.56
2022-08-03T10:31:58.111Z,49.71
2022-08-03T10:34:27.710Z,48.48
2022-08-03T10:36:58.659Z,48.23
2022-08-03T10:39:29.125Z,47.74
2022-08-03T10:41:58.680Z,49.01
2022-08-03T10:44:33.094Z,48.77
2022-08-03T10:46:59.708Z,47.37
2022-08-03T10:49:34.989Z,48.64
2022-08-03T10:52:10.465Z,47.46
2022-08-03T10:55:03.215Z,46.63
2022-08-03T10:57:43.502Z,46.80
2022-08-03T11:00:14.075Z,46.68
2022-08-03T11:03:09.615Z,47.02
2022-08-03T11:05:38.962Z,47.24
2022-08-03T11:08:23.956Z,47.99
2022-08-03T11:10:56.284Z,46.82
2022-08-03T11:13:25.496Z,47.23
2022-08-03T11:15:54.217Z,47.41
2022-08-03T11:18:28.513Z,47.37
2022-08-03T11:21:00.186Z,47.30
2022-08-03T11:24:04.682Z,47.39
2022-08-03T11:26:33.479Z,46.92
2022-08-03T11:29:28.899Z,45.94
2022-08-03T11:31:55.323Z,45.80
2022-08-03T11:34:24.273Z,43.60
2022-08-03T11:37:21.341Z,42.99
2022-08-03T11:39:51.591Z,42.67
2022-08-03T11:42:24.054Z,41.47
2022-08-03T11:44:51.481Z,40.85
2022-08-03T11:47:18.578Z,37.97
2022-08-03T11:49:49.429Z,37.61
2022-08-03T11:52:19.519Z,36.92
2022-08-03T11:54:56.719Z,33.74
2022-08-03T11:59:16.990Z,34.72
2022-08-03T12:00:29.658Z,32.58
2022-08-03T12:02:57.768Z,31.44
2022-08-03T12:05:51.428Z,33.05
2022-08-03T12:08:27.960Z,31.16
2022-08-03T12:10:56.771Z,31.87
2022-08-03T12:14:35.647Z,31.44
2022-08-03T12:16:11.042Z,30.69
2022-08-03T12:18:37.605Z,30.80
2022-08-03T12:21:11.720Z,30.30
2022-08-03T12:23:39.049Z,30.60
2022-08-03T12:26:08.849Z,28.31
2022-08-03T12:28:38.429Z,28.83
2022-08-03T12:31:07.380Z,28.28
2022-08-03T12:34:04.894Z,27.73
2022-08-03T12:36:36.303Z,28.35
2022-08-03T12:39:05.682Z,28.46
2022-08-03T12:41:35.159Z,28.77
2022-08-03T12:44:06.353Z,26.29
2022-08-03T12:46:38.277Z,26.37
2022-08-03T12:49:07.605Z,27.15
2022-08-03T12:51:44.609Z,26.78
2022-08-03T12:54:24.750Z,26.85
2022-08-03T12:57:00.765Z,25.82
2022-08-03T12:59:35.441Z,25.65
2022-08-03T13:02:17.781Z,26.14
2022-08-03T13:04:45.748Z,26.16
2022-08-03T13:07:14.507Z,25.81
2022-08-03T13:09:43.395Z,26.12
2022-08-03T13:12:12.717Z,25.81
2022-08-03T13:14:39.678Z,24.74
2022-08-03T13:17:07.101Z,25.07
2022-08-03T13:19:34.712Z,25.27
2022-08-03T13:22:03.963Z,23.26
2022-08-03T13:24:32.354Z,23.70
2022-08-03T13:26:59.639Z,24.67
2022-08-03T13:29:26.087Z,23.68
2022-08-03T13:31:52.570Z,24.70
2022-08-03T13:34:23.168Z,24.64
2022-08-03T13:39:57.183Z,26.00
2022-08-03T13:42:25.425Z,26.57
2022-08-03T13:44:51.888Z,26.10
2022-08-03T13:47:19.236Z,26.92
2022-08-03T13:50:00.515Z,25.29
2022-08-03T13:52:37.815Z,26.87
2022-08-03T13:55:06.824Z,26.75
2022-08-03T13:58:03.131Z,26.25
2022-08-03T14:00:28.169Z,25.62
2022-08-03T14:03:02.991Z,25.78
2022-08-03T14:05:32.189Z,24.30
2022-08-03T14:08:03.965Z,25.66
2022-08-03T14:10:30.856Z,25.56
2022-08-03T14:13:00.173Z,26.64
2022-08-03T14:15:28.360Z,26.64
2022-08-03T14:17:55.069Z,25.75
2022-08-03T14:20:36.741Z,26.86
2022-08-03T14:23:06.692Z,26.29
2022-08-03T14:25:49.851Z,27.17
2022-08-03T14:28:18.518Z,26.02
2022-08-03T14:30:45.110Z,25.43
2022-08-03T14:33:11.573Z,26.74
2022-08-03T14:35:38.020Z,26.95
2022-08-03T14:38:04.444Z,26.83
2022-08-03T14:40:30.856Z,24.61
2022-08-03T14:42:57.267Z,24.48
2022-08-03T14:45:23.690Z,25.12
2022-08-03T14:50:28.636Z,24.75
2022-08-03T14:50:42.898Z,24.77
2022-08-03T14:53:10.874Z,24.98
2022-08-03T14:55:38.992Z,25.37
2022-08-03T14:58:20.012Z,26.02
2022-08-03T15:00:49.132Z,25.41
2022-08-03T15:03:16.733Z,25.31
2022-08-03T15:05:43.987Z,25.57
2022-08-03T15:08:10.399Z,26.00
2022-08-03T15:10:44.644Z,26.26
2022-08-03T15:13:14.911Z,25.55
2022-08-03T15:15:41.672Z,26.39
2022-08-03T15:18:08.798Z,26.77
2022-08-03T15:20:50.792Z,26.93
2022-08-03T15:23:18.523Z,27.54
2022-08-03T15:26:28.508Z,27.90
2022-08-03T15:28:32.803Z,28.42
2022-08-03T15:30:59.829Z,28.06
2022-08-03T15:33:26.309Z,27.98
2022-08-03T15:35:53.220Z,28.34
2022-08-03T15:38:22.776Z,28.97
2022-08-03T15:40:54.403Z,29.38
2022-08-03T15:43:24.561Z,29.22
2022-08-03T15:46:12.766Z,29.30
2022-08-03T15:48:37.886Z,28.57
2022-08-03T15:51:05.375Z,29.51
2022-08-03T15:53:33.487Z,30.26
2022-08-03T15:56:00.802Z,31.06
2022-08-03T15:59:09.396Z,32.02
2022-08-03T16:01:19.789Z,31.77
2022-08-03T16:03:46.783Z,32.34
2022-08-03T16:06:13.858Z,32.90
2022-08-03T16:08:40.333Z,33.14
2022-08-03T16:11:06.809Z,33.96
2022-08-03T16:14:05.537Z,34.18
2022-08-03T16:16:19.892Z,34.24
2022-08-03T16:18:46.343Z,34.73
2022-08-03T16:21:14.815Z,32.20
2022-08-03T16:23:47.272Z,32.74
2022-08-03T16:26:14.054Z,32.55
2022-08-03T16:28:40.594Z,34.06
2022-08-03T16:31:08.325Z,34.54
2022-08-03T16:33:35.057Z,34.05
2022-08-03T16:36:01.731Z,33.95
2022-08-03T16:38:28.221Z,34.81
2022-08-03T16:40:54.632Z,34.62
2022-08-03T16:43:22.412Z,35.12
2022-08-03T16:45:49.390Z,35.04
2022-08-03T16:48:17.000Z,35.67
2022-08-03T16:50:44.447Z,36.02
2022-08-03T16:53:16.257Z,36.60
2022-08-03T16:55:53.365Z,36.82
2022-08-03T16:58:41.725Z,37.32
2022-08-03T17:01:21.862Z,37.54
2022-08-03T17:04:04.758Z,37.87
2022-08-03T17:06:37.239Z,38.19
2022-08-03T17:09:10.057Z,38.69
2022-08-03T17:11:47.315Z,39.01
2022-08-03T17:14:21.943Z,39.24
2022-08-03T17:16:52.617Z,39.24
2022-08-03T17:19:23.261Z,40.80
2022-08-03T17:21:56.810Z,39.98
2022-08-03T17:24:41.122Z,39.54
2022-08-03T17:27:18.553Z,39.75
2022-08-03T17:30:09.668Z,40.11
2022-08-03T17:32:42.205Z,40.26
2022-08-03T17:35:10.445Z,40.52
2022-08-03T17:37:58.016Z,40.64
2022-08-03T17:40:24.276Z,40.16
2022-08-03T17:42:52.222Z,41.04
2022-08-03T17:45:19.679Z,40.66
2022-08-03T17:47:57.644Z,40.26
2022-08-03T17:50:32.501Z,40.20
2022-08-03T17:53:15.458Z,40.94
2022-08-03T17:56:04.404Z,39.21
2022-08-03T17:58:41.394Z,39.85
2022-08-03T18:02:00.601Z,39.80
2022-08-03T18:04:30.139Z,40.45
2022-08-03T18:06:59.649Z,40.43
2022-08-03T18:10:05.101Z,40.24
2022-08-03T18:12:26.124Z,40.44
2022-08-03T18:15:01.217Z,41.15
2022-08-03T18:17:55.603Z,41.10
2022-08-03T18:20:34.401Z,41.33
2022-08-03T18:23:08.831Z,41.07
2022-08-03T18:25:45.543Z,40.27
2022-08-03T18:28:16.491Z,40.78
2022-08-03T18:30:53.295Z,40.99
2022-08-03T18:34:16.449Z,41.19
2022-08-03T18:39:01.768Z,41.55
2022-08-03T18:41:33.370Z,41.35
2022-08-03T18:44:06.812Z,42.61
2022-08-03T18:50:19.100Z,42.74
2022-08-03T18:53:19.339Z,42.35
2022-08-03T18:56:01.376Z,43.29
2022-08-03T18:58:39.951Z,42.65
2022-08-03T19:02:01.011Z,43.12
2022-08-03T19:04:14.271Z,45.43
2022-08-03T19:06:45.485Z,44.63
2022-08-03T19:09:20.433Z,44.92
2022-08-03T19:12:14.185Z,44.89
2022-08-03T19:14:53.292Z,46.82
2022-08-03T19:17:22.031Z,45.99
2022-08-03T19:19:57.795Z,45.13
2022-08-03T19:22:27.151Z,45.63
2022-08-03T19:24:55.222Z,47.86
2022-08-03T19:27:27.036Z,49.73
2022-08-03T19:29:59.560Z,48.77
2022-08-03T19:32:30.199Z,49.88
2022-08-03T19:34:59.561Z,51.36
2022-08-03T19:37:38.135Z,50.84
2022-08-03T19:40:10.283Z,50.52
2022-08-03T19:42:43.325Z,50.16
2022-08-03T19:45:14.514Z,50.27
2022-08-03T19:47:58.533Z,50.87
2022-08-03T19:50:25.487Z,52.03
2022-08-03T19:52:52.836Z,51.98
2022-08-03T19:55:19.913Z,51.75
2022-08-03T19:57:49.286Z,51.79
2022-08-03T20:00:19.700Z,51.88
2022-08-03T20:02:46.623Z,54.00
2022-08-03T20:05:15.331Z,53.09
2022-08-03T20:07:47.891Z,52.48
2022-08-03T20:10:16.668Z,51.99
2022-08-03T20:12:44.742Z,52.67
2022-08-03T20:15:11.938Z,52.66
2022-08-03T20:17:57.086Z,53.05
2022-08-03T20:20:29.465Z,53.59
2022-08-03T20:22:58.147Z,53.40
2022-08-03T20:25:38.174Z,52.62
2022-08-03T20:28:16.846Z,52.81
2022-08-03T20:33:46.326Z,53.74
2022-08-03T20:36:18.079Z,53.86
2022-08-03T20:38:47.696Z,53.84
2022-08-03T20:41:16.280Z,54.08
2022-08-03T20:43:43.121Z,54.35
2022-08-03T20:46:32.077Z,54.53
2022-08-03T20:48:58.917Z,54.23
2022-08-03T20:51:49.141Z,54.89
2022-08-03T20:54:28.770Z,55.26
2022-08-03T20:59:50.063Z,55.39
2022-08-03T21:02:30.174Z,55.68
2022-08-03T21:05:03.416Z,55.61
2022-08-03T21:07:45.906Z,55.62
2022-08-03T21:10:30.280Z,56.29
2022-08-03T21:12:58.649Z,41.19
2022-08-03T21:13:00.462Z,41.72
2022-08-03T21:13:07.090Z,53.09
2022-08-03T21:13:07.725Z,55.15
2022-08-03T21:13:24.857Z,56.38
2022-08-03T21:16:04.098Z,57.01
2022-08-03T21:19:05.759Z,57.17
2022-08-03T21:21:32.749Z,57.46
2022-08-03T21:24:00.559Z,57.40
2022-08-03T21:26:28.177Z,57.60
2022-08-03T21:28:56.570Z,57.77
2022-08-03T21:31:26.808Z,58.01
2022-08-03T21:34:11.780Z,58.09
2022-08-03T21:36:38.341Z,58.26
2022-08-03T21:39:08.375Z,58.62
2022-08-03T21:41:36.482Z,58.12
2022-08-03T21:44:04.537Z,57.94
2022-08-03T21:46:42.694Z,58.37
2022-08-03T21:49:51.994Z,58.38
2022-08-03T21:52:03.555Z,58.86
2022-08-03T21:54:43.474Z,59.29
2022-08-03T21:57:17.945Z,58.79
2022-08-03T21:59:52.346Z,59.30
2022-08-03T22:02:24.367Z,59.51
2022-08-03T22:04:56.309Z,59.32
2022-08-03T22:07:28.890Z,59.69
2022-08-03T22:09:56.719Z,59.92
2022-08-03T22:12:25.314Z,59.84
2022-08-03T22:15:00.525Z,60.03
2022-08-03T22:17:53.994Z,60.00
2022-08-03T22:20:20.178Z,60.18
2022-08-03T22:22:55.441Z,60.25
2022-08-03T22:25:27.327Z,60.42
2022-08-03T22:27:54.768Z,60.59
2022-08-03T22:30:21.237Z,60.65
2022-08-03T22:32:51.797Z,60.95
2022-08-03T22:35:21.263Z,61.01
2022-08-03T22:37:53.592Z,61.19
2022-08-03T22:40:20.127Z,61.35
2022-08-03T22:42:49.334Z,60.96
2022-08-03T22:46:06.014Z,61.18
2022-08-03T22:48:07.697Z,61.70
2022-08-03T22:50:34.880Z,61.45
2022-08-03T22:53:01.360Z,61.33
2022-08-03T22:55:27.857Z,61.21
2022-08-03T22:57:56.002Z,61.19
2022-08-03T23:00:24.381Z,61.35
2022-08-03T23:02:53.417Z,61.66
2022-08-03T23:06:00.303Z,62.42
2022-08-03T23:08:22.598Z,62.63
2022-08-03T23:10:50.943Z,62.52
2022-08-03T23:13:18.335Z,62.20
2022-08-03T23:15:55.079Z,62.36
2022-08-03T23:18:22.825Z,62.90
2022-08-03T23:20:51.872Z,63.12
2022-08-03T23:23:19.797Z,63.72
2022-08-03T23:25:49.452Z,63.59
2022-08-03T23:28:18.570Z,63.80
2022-08-03T23:30:45.455Z,63.55
2022-08-03T23:33:16.230Z,63.29
2022-08-03T23:36:28.061Z,63.55
2022-08-03T23:38:48.356Z,63.68
2022-08-03T23:41:15.582Z,63.53
2022-08-03T23:43:51.398Z,63.93
2022-08-03T23:46:20.996Z,64.11
2022-08-03T23:48:47.471Z,64.51
2022-08-03T23:51:36.542Z,64.70
2022-08-03T23:54:33.900Z,64.69
2022-08-03T23:57:19.341Z,64.88
